createdAt,value
2023-02-06T00:00:55.324Z,3.30
2023-02-06T00:03:40.451Z,3.20
2023-02-06T00:06:26.041Z,3.10
2023-02-06T00:09:11.816Z,2.90
2023-02-06T00:11:57.074Z,3.00
2023-02-06T00:14:42.655Z,2.90
2023-02-06T00:17:28.073Z,3.10
2023-02-06T00:20:14.106Z,3.00
2023-02-06T00:22:59.320Z,3.10
2023-02-06T00:25:45.002Z,3.10
2023-02-06T00:28:30.760Z,3.10
2023-02-06T00:31:16.273Z,3.20
2023-02-06T00:34:03.869Z,3.10
2023-02-06T00:36:49.136Z,3.00
2023-02-06T00:39:34.640Z,3.10
2023-02-06T00:42:20.160Z,3.10
2023-02-06T00:45:06.328Z,3.10
2023-02-06T00:47:51.709Z,3.10
2023-02-06T00:50:37.562Z,4.70
2023-02-06T00:53:23.374Z,3.20
2023-02-06T00:56:08.956Z,3.10
2023-02-06T00:58:54.377Z,3.20
2023-02-06T01:01:40.046Z,3.20
2023-02-06T01:04:25.463Z,3.40
2023-02-06T01:07:10.934Z,3.40
2023-02-06T01:09:56.568Z,3.20
2023-02-06T01:12:42.619Z,3.10
2023-02-06T01:15:28.496Z,3.00
2023-02-06T01:18:13.784Z,3.20
2023-02-06T01:20:59.264Z,3.10
2023-02-06T01:23:45.140Z,3.10
2023-02-06T01:26:30.386Z,3.00
2023-02-06T01:29:15.989Z,3.00
2023-02-06T01:32:01.180Z,3.10
2023-02-06T01:34:46.908Z,2.90
2023-02-06T01:37:33.135Z,2.90
2023-02-06T01:40:18.986Z,2.90
2023-02-06T01:43:04.209Z,2.80
2023-02-06T01:45:49.881Z,2.80
2023-02-06T01:48:45.517Z,2.90
2023-02-06T01:51:31.169Z,2.70
2023-02-06T01:54:17.159Z,2.80
2023-02-06T01:57:06.110Z,2.70
2023-02-06T01:59:57.205Z,2.90
2023-02-06T02:02:45.219Z,2.90
2023-02-06T02:05:33.321Z,3.00
2023-02-06T02:08:24.697Z,2.80
2023-02-06T02:11:14.321Z,2.90
2023-02-06T02:14:01.945Z,3.00
2023-02-06T02:16:59.320Z,2.80
2023-02-06T02:20:09.195Z,2.60
2023-02-06T02:22:58.812Z,2.70
2023-02-06T02:26:13.423Z,2.70
2023-02-06T02:29:22.955Z,2.70
2023-02-06T02:32:36.442Z,2.60
2023-02-06T02:35:31.006Z,2.90
2023-02-06T02:38:44.302Z,2.40
2023-02-06T02:41:48.737Z,2.60
2023-02-06T02:44:47.835Z,2.60
2023-02-06T02:47:43.604Z,2.60
2023-02-06T02:50:29.901Z,4.30
2023-02-06T02:53:15.592Z,2.50
2023-02-06T02:56:01.238Z,2.50
2023-02-06T02:58:50.950Z,2.50
2023-02-06T03:01:42.397Z,2.60
2023-02-06T03:04:35.132Z,2.40
2023-02-06T03:07:53.862Z,2.40
2023-02-06T03:11:00.205Z,2.40
2023-02-06T03:14:02.708Z,2.50
2023-02-06T03:16:52.523Z,2.40
2023-02-06T03:19:45.730Z,2.50
2023-02-06T03:22:34.616Z,2.40
2023-02-06T03:25:27.415Z,2.20
2023-02-06T03:28:27.610Z,2.40
2023-02-06T03:31:18.811Z,2.50
2023-02-06T03:34:19.830Z,2.40
2023-02-06T03:37:05.322Z,2.30
2023-02-06T03:39:50.982Z,2.60
2023-02-06T03:42:41.186Z,2.60
2023-02-06T03:45:29.960Z,2.70
2023-02-06T03:48:38.424Z,2.80
2023-02-06T03:51:32.753Z,2.70
2023-02-06T03:54:21.496Z,2.70
2023-02-06T03:57:10.645Z,2.80
2023-02-06T03:59:55.996Z,2.70
2023-02-06T04:02:42.617Z,2.80
2023-02-06T04:05:28.399Z,2.90
2023-02-06T04:08:13.864Z,2.90
2023-02-06T04:10:59.593Z,3.00
2023-02-06T04:13:44.809Z,2.90
2023-02-06T04:16:30.304Z,2.30
2023-02-06T04:19:16.043Z,3.00
2023-02-06T04:22:01.701Z,3.10
2023-02-06T04:24:47.116Z,3.00
2023-02-06T04:27:32.780Z,3.10
2023-02-06T04:30:19.072Z,3.10
2023-02-06T04:33:05.140Z,3.10
2023-02-06T04:35:51.125Z,3.20
2023-02-06T04:38:36.660Z,3.30
2023-02-06T04:41:22.326Z,3.20
2023-02-06T04:44:07.899Z,3.30
2023-02-06T04:46:53.498Z,4.20
2023-02-06T04:49:38.933Z,3.30
2023-02-06T04:52:24.548Z,3.20
2023-02-06T04:55:10.204Z,3.20
2023-02-06T04:57:55.511Z,4.10
2023-02-06T05:00:41.151Z,3.10
2023-02-06T05:03:27.043Z,3.10
2023-02-06T05:06:12.946Z,2.90
2023-02-06T05:08:59.736Z,2.90
2023-02-06T05:11:44.925Z,3.00
2023-02-06T05:14:30.402Z,3.00
2023-02-06T05:17:15.814Z,3.00
2023-02-06T05:20:01.168Z,2.90
2023-02-06T05:22:46.654Z,3.30
2023-02-06T05:25:31.938Z,3.10
2023-02-06T05:28:17.919Z,3.00
2023-02-06T05:31:04.034Z,3.10
2023-02-06T05:33:52.741Z,3.00
2023-02-06T05:36:38.459Z,3.20
2023-02-06T05:39:24.394Z,3.20
2023-02-06T05:42:09.895Z,3.00
2023-02-06T05:44:55.298Z,3.10
2023-02-06T05:47:40.702Z,3.10
2023-02-06T05:50:26.028Z,3.10
2023-02-06T05:53:11.502Z,3.10
2023-02-06T05:55:57.467Z,3.10
2023-02-06T05:58:43.246Z,3.00
2023-02-06T06:01:29.275Z,3.80
2023-02-06T06:04:15.333Z,3.00
2023-02-06T06:07:00.468Z,3.10
2023-02-06T06:09:46.053Z,3.20
2023-02-06T06:12:31.407Z,3.30
2023-02-06T06:15:17.177Z,4.00
2023-02-06T06:18:02.360Z,3.00
2023-02-06T06:20:48.350Z,3.10
2023-02-06T06:23:33.750Z,3.00
2023-02-06T06:26:19.751Z,3.00
2023-02-06T06:29:05.597Z,3.10
2023-02-06T06:31:51.363Z,2.60
2023-02-06T06:34:37.230Z,3.00
2023-02-06T06:37:22.587Z,2.80
2023-02-06T06:40:08.613Z,2.80
2023-02-06T06:42:54.120Z,2.90
2023-02-06T06:45:39.972Z,2.90
2023-02-06T06:48:25.414Z,2.80
2023-02-06T06:51:10.986Z,2.90
2023-02-06T06:53:57.609Z,2.90
2023-02-06T06:56:43.177Z,2.90
2023-02-06T06:59:28.713Z,3.50
2023-02-06T07:02:14.625Z,2.80
2023-02-06T07:05:00.406Z,2.70
2023-02-06T07:07:45.866Z,2.80
2023-02-06T07:10:31.415Z,2.60
2023-02-06T07:13:17.086Z,2.70
2023-02-06T07:16:02.776Z,2.90
2023-02-06T07:18:48.400Z,2.50
2023-02-06T07:21:35.017Z,2.60
2023-02-06T07:24:20.185Z,2.60
2023-02-06T07:27:05.879Z,2.50
2023-02-06T07:29:51.325Z,2.60
2023-02-06T07:32:37.010Z,2.60
2023-02-06T07:35:22.313Z,2.50
2023-02-06T07:38:07.784Z,2.70
2023-02-06T07:40:53.427Z,2.60
2023-02-06T07:43:39.029Z,2.40
2023-02-06T07:46:24.585Z,2.40
2023-02-06T07:49:11.594Z,2.50
2023-02-06T07:51:57.169Z,2.70
2023-02-06T07:54:42.911Z,2.70
2023-02-06T07:57:28.347Z,2.40
2023-02-06T08:00:14.644Z,2.60
2023-02-06T08:03:00.099Z,2.60
2023-02-06T08:05:45.635Z,2.60
2023-02-06T08:08:31.115Z,2.60
2023-02-06T08:11:19.247Z,2.50
2023-02-06T08:14:04.785Z,2.70
2023-02-06T08:16:50.925Z,2.90
2023-02-06T08:19:36.653Z,2.90
2023-02-06T08:22:22.186Z,2.90
2023-02-06T08:25:08.108Z,2.90
2023-02-06T08:27:57.000Z,2.90
2023-02-06T08:30:42.466Z,2.90
2023-02-06T08:33:28.084Z,3.00
2023-02-06T08:36:14.256Z,2.90
2023-02-06T08:39:00.569Z,3.30
2023-02-06T08:41:46.156Z,3.00
2023-02-06T08:44:31.279Z,3.00
2023-02-06T08:47:16.706Z,2.90
2023-02-06T08:50:03.753Z,3.00
2023-02-06T08:52:49.377Z,2.90
2023-02-06T08:55:35.033Z,3.20
2023-02-06T08:58:20.524Z,3.50
2023-02-06T09:01:07.982Z,3.10
2023-02-06T09:03:58.429Z,3.00
2023-02-06T09:06:45.348Z,3.10
2023-02-06T09:09:30.735Z,3.00
2023-02-06T09:12:16.313Z,3.30
2023-02-06T09:15:01.673Z,3.00
2023-02-06T09:17:47.036Z,2.90
2023-02-06T09:20:32.328Z,3.20
2023-02-06T09:23:18.068Z,3.10
2023-02-06T09:26:04.220Z,3.30
2023-02-06T09:28:57.769Z,3.10
2023-02-06T09:31:43.342Z,2.90
2023-02-06T09:34:29.985Z,2.70
2023-02-06T09:37:15.518Z,3.00
2023-02-06T09:40:01.024Z,2.90
2023-02-06T09:42:47.698Z,3.00
2023-02-06T09:45:33.866Z,3.00
2023-02-06T09:48:27.307Z,3.00
2023-02-06T09:51:34.956Z,3.00
2023-02-06T09:54:52.637Z,3.00
2023-02-06T09:57:55.856Z,2.90
2023-02-06T10:01:06.250Z,2.80
2023-02-06T10:04:15.955Z,3.00
2023-02-06T10:07:17.647Z,3.00
2023-02-06T10:10:25.841Z,3.00
2023-02-06T10:13:56.889Z,2.90
2023-02-06T10:16:56.006Z,2.90
2023-02-06T10:19:53.106Z,3.00
2023-02-06T10:22:50.598Z,3.10
2023-02-06T10:25:45.259Z,3.00
2023-02-06T10:28:33.585Z,3.20
2023-02-06T10:31:21.825Z,3.50
2023-02-06T10:34:37.332Z,3.40
2023-02-06T10:37:47.749Z,3.30
2023-02-06T10:40:46.426Z,3.30
2023-02-06T10:43:53.375Z,3.20
2023-02-06T10:46:48.423Z,3.30
2023-02-06T10:49:43.891Z,3.30
2023-02-06T10:52:35.036Z,3.40
2023-02-06T10:55:49.234Z,3.50
2023-02-06T10:58:45.863Z,3.40
2023-02-06T11:01:36.926Z,3.50
2023-02-06T11:04:32.646Z,4.60
2023-02-06T11:07:31.258Z,3.50
2023-02-06T11:10:19.476Z,3.60
2023-02-06T11:13:10.992Z,3.40
2023-02-06T11:16:02.087Z,3.50
2023-02-06T11:18:49.504Z,3.50
2023-02-06T11:21:56.723Z,3.50
2023-02-06T11:24:59.189Z,4.00
2023-02-06T11:27:45.270Z,3.70
2023-02-06T11:30:35.117Z,4.20
2023-02-06T11:33:26.863Z,3.60
2023-02-06T11:36:25.725Z,3.90
2023-02-06T11:39:38.122Z,3.60
2023-02-06T11:42:28.498Z,3.40
2023-02-06T11:45:22.972Z,3.60
2023-02-06T11:48:32.677Z,3.40
2023-02-06T11:51:18.100Z,3.50
2023-02-06T11:54:04.309Z,3.10
2023-02-06T11:56:59.750Z,3.40
2023-02-06T11:59:58.147Z,3.50
2023-02-06T12:02:51.337Z,3.70
2023-02-06T12:05:42.709Z,3.80
2023-02-06T12:08:50.843Z,3.60
2023-02-06T12:11:57.764Z,3.60
2023-02-06T12:14:48.967Z,3.70
2023-02-06T12:17:39.907Z,3.80
2023-02-06T12:20:31.107Z,3.80
2023-02-06T12:23:23.913Z,3.80
2023-02-06T12:26:14.902Z,3.90
2023-02-06T12:29:19.621Z,3.90
2023-02-06T12:32:18.387Z,4.00
2023-02-06T12:35:14.584Z,3.90
2023-02-06T12:38:25.024Z,3.80
2023-02-06T12:41:28.141Z,3.90
2023-02-06T12:44:55.435Z,4.00
2023-02-06T12:47:52.042Z,4.00
2023-02-06T12:50:46.651Z,3.90
2023-02-06T12:53:47.285Z,4.00
2023-02-06T12:56:51.109Z,4.00
2023-02-06T13:00:14.072Z,4.10
2023-02-06T13:03:05.912Z,4.00
2023-02-06T13:05:54.436Z,4.00
2023-02-06T13:08:50.672Z,4.00
2023-02-06T13:11:39.200Z,4.00
2023-02-06T13:14:28.368Z,3.70
2023-02-06T13:17:32.107Z,4.10
2023-02-06T13:20:19.658Z,4.20
2023-02-06T13:23:14.647Z,4.30
2023-02-06T13:26:00.101Z,4.60
2023-02-06T13:28:58.631Z,4.60
2023-02-06T13:31:43.880Z,4.80
2023-02-06T13:34:30.023Z,4.70
2023-02-06T13:37:40.609Z,5.20
2023-02-06T13:40:30.425Z,4.80
2023-02-06T13:43:21.146Z,4.90
2023-02-06T13:46:11.657Z,5.00
2023-02-06T13:49:34.364Z,5.20
2023-02-06T13:52:56.897Z,5.50
2023-02-06T13:56:21.787Z,5.40
2023-02-06T13:59:37.108Z,5.10
2023-02-06T14:02:25.062Z,5.50
2023-02-06T14:05:15.737Z,5.50
2023-02-06T14:08:17.381Z,5.70
2023-02-06T14:11:29.468Z,5.70
2023-02-06T14:14:32.713Z,5.80
2023-02-06T14:17:48.265Z,5.60
2023-02-06T14:20:33.638Z,5.60
2023-02-06T14:23:32.570Z,5.40
2023-02-06T14:26:26.836Z,5.30
2023-02-06T14:29:32.960Z,5.30
2023-02-06T14:32:44.542Z,5.40
2023-02-06T14:35:47.022Z,5.40
2023-02-06T14:38:35.510Z,5.50
2023-02-06T14:41:21.244Z,5.40
2023-02-06T14:44:13.200Z,5.10
2023-02-06T14:47:00.764Z,5.20
2023-02-06T14:49:47.805Z,5.20
2023-02-06T14:52:34.509Z,5.20
2023-02-06T14:55:44.673Z,5.00
2023-02-06T14:58:30.848Z,5.90
2023-02-06T15:01:19.478Z,6.30
2023-02-06T15:04:09.438Z,4.90
2023-02-06T15:06:59.130Z,4.80
2023-02-06T15:10:00.078Z,4.80
2023-02-06T15:12:52.383Z,4.70
2023-02-06T15:15:38.368Z,4.50
2023-02-06T15:18:23.914Z,4.60
2023-02-06T15:21:13.582Z,4.40
2023-02-06T15:24:36.897Z,4.30
2023-02-06T15:27:32.077Z,4.30
2023-02-06T15:30:23.857Z,5.70
2023-02-06T15:33:11.380Z,4.40
2023-02-06T15:35:59.926Z,4.40
2023-02-06T15:38:45.533Z,4.70
2023-02-06T15:41:31.712Z,4.30
2023-02-06T15:44:27.601Z,4.20
2023-02-06T15:47:15.720Z,4.20
2023-02-06T15:50:00.978Z,4.20
2023-02-06T15:52:47.585Z,4.10
2023-02-06T15:55:35.528Z,4.10
2023-02-06T15:58:20.962Z,4.10
2023-02-06T16:01:13.410Z,4.00
2023-02-06T16:04:05.168Z,4.00
2023-02-06T16:07:12.912Z,3.90
2023-02-06T16:10:04.579Z,4.10
2023-02-06T16:12:51.302Z,4.10
2023-02-06T16:15:39.374Z,4.00
2023-02-06T16:18:24.800Z,3.90
2023-02-06T16:21:17.664Z,3.70
2023-02-06T16:24:17.617Z,3.70
2023-02-06T16:27:17.057Z,3.60
2023-02-06T16:30:02.554Z,3.50
2023-02-06T16:32:47.804Z,4.20
2023-02-06T16:35:33.276Z,3.60
2023-02-06T16:38:18.820Z,3.80
2023-02-06T16:41:37.628Z,3.60
2023-02-06T16:44:33.062Z,3.60
2023-02-06T16:47:24.999Z,3.60
2023-02-06T16:50:10.650Z,3.60
2023-02-06T16:52:58.997Z,3.50
2023-02-06T16:55:44.568Z,3.30
2023-02-06T16:58:31.935Z,3.30
2023-02-06T17:01:25.214Z,3.20
2023-02-06T17:04:10.979Z,3.10
2023-02-06T17:06:57.300Z,3.00
2023-02-06T17:09:44.112Z,3.10
2023-02-06T17:12:31.016Z,3.00
2023-02-06T17:15:18.626Z,3.00
2023-02-06T17:18:04.263Z,2.90
2023-02-06T17:20:52.902Z,3.30
2023-02-06T17:23:38.520Z,3.80
2023-02-06T17:26:24.740Z,3.20
2023-02-06T17:29:13.991Z,2.90
2023-02-06T17:32:00.737Z,2.90
2023-02-06T17:34:46.350Z,3.00
2023-02-06T17:37:31.660Z,3.40
2023-02-06T17:40:26.830Z,2.80
2023-02-06T17:43:12.060Z,2.80
2023-02-06T17:45:57.409Z,2.80
2023-02-06T17:48:44.559Z,2.70
2023-02-06T17:51:29.952Z,2.60
2023-02-06T17:54:15.526Z,2.70
2023-02-06T17:57:00.969Z,3.50
2023-02-06T17:59:46.515Z,2.80
2023-02-06T18:02:32.029Z,2.40
2023-02-06T18:05:17.636Z,2.60
2023-02-06T18:08:03.075Z,2.60
2023-02-06T18:10:48.181Z,2.90
2023-02-06T18:13:34.091Z,2.70
2023-02-06T18:16:22.732Z,2.70
2023-02-06T18:19:08.140Z,2.70
2023-02-06T18:21:54.139Z,2.60
2023-02-06T18:24:39.956Z,2.40
2023-02-06T18:27:25.550Z,2.10
2023-02-06T18:30:11.847Z,2.40
2023-02-06T18:32:57.066Z,2.40
2023-02-06T18:35:44.971Z,2.90
2023-02-06T18:38:30.582Z,2.40
2023-02-06T18:41:34.850Z,2.50
2023-02-06T18:44:20.317Z,2.20
2023-02-06T18:47:05.558Z,2.30
2023-02-06T18:49:51.004Z,3.40
2023-02-06T18:52:36.796Z,2.30
2023-02-06T18:55:22.200Z,2.30
2023-02-06T18:58:08.305Z,2.20
2023-02-06T19:00:54.209Z,2.30
2023-02-06T19:03:40.673Z,2.10
2023-02-06T19:06:29.979Z,2.20
2023-02-06T19:09:17.300Z,2.00
2023-02-06T19:12:03.005Z,1.80
2023-02-06T19:14:48.253Z,3.10
2023-02-06T19:17:34.335Z,2.00
2023-02-06T19:20:20.382Z,1.90
2023-02-06T19:23:06.078Z,1.80
2023-02-06T19:25:51.614Z,1.80
2023-02-06T19:28:38.557Z,1.60
2023-02-06T19:31:24.788Z,1.90
2023-02-06T19:34:10.514Z,1.70
2023-02-06T19:36:56.041Z,1.60
2023-02-06T19:39:45.255Z,1.50
2023-02-06T19:42:30.754Z,1.60
2023-02-06T19:45:16.504Z,1.70
2023-02-06T19:48:01.676Z,1.60
2023-02-06T19:50:48.034Z,1.60
2023-02-06T19:53:34.856Z,1.80
2023-02-06T19:56:26.632Z,1.70
2023-02-06T19:59:22.456Z,1.50
2023-02-06T20:02:09.931Z,1.70
2023-02-06T20:04:55.480Z,1.50
2023-02-06T20:07:40.940Z,1.50
2023-02-06T20:10:26.259Z,1.50
2023-02-06T20:13:11.572Z,1.80
2023-02-06T20:16:03.299Z,1.80
2023-02-06T20:18:49.114Z,1.40
2023-02-06T20:21:39.072Z,1.40
2023-02-06T20:24:28.156Z,1.40
2023-02-06T20:27:15.183Z,2.30
2023-02-06T20:30:00.697Z,1.40
2023-02-06T20:32:46.163Z,1.40
2023-02-06T20:35:31.655Z,1.30
2023-02-06T20:38:16.939Z,1.30
2023-02-06T20:41:06.344Z,1.30
2023-02-06T20:43:51.725Z,1.60
2023-02-06T20:46:37.036Z,1.20
2023-02-06T20:49:26.365Z,1.70
2023-02-06T20:52:11.787Z,1.40
2023-02-06T20:54:57.054Z,1.30
2023-02-06T20:57:43.313Z,1.30
2023-02-06T21:00:29.291Z,1.20
2023-02-06T21:03:14.736Z,1.20
2023-02-06T21:06:00.736Z,1.20
2023-02-06T21:08:47.444Z,1.00
2023-02-06T21:11:39.573Z,1.00
2023-02-06T21:14:25.453Z,0.90
2023-02-06T21:17:11.135Z,1.00
2023-02-06T21:19:56.283Z,0.60
2023-02-06T21:22:42.289Z,0.90
2023-02-06T21:25:27.895Z,0.80
2023-02-06T21:28:13.268Z,1.00
2023-02-06T21:31:01.122Z,0.90
2023-02-06T21:33:48.462Z,1.20
2023-02-06T21:36:35.963Z,1.00
2023-02-06T21:39:26.918Z,1.10
2023-02-06T21:42:12.371Z,0.80
2023-02-06T21:44:57.807Z,1.10
2023-02-06T21:47:43.404Z,1.00
2023-02-06T21:50:29.029Z,0.90
2023-02-06T21:53:14.603Z,0.70
2023-02-06T21:56:00.416Z,1.20
2023-02-06T21:58:46.182Z,0.80
2023-02-06T22:01:33.491Z,0.60
2023-02-06T22:04:18.787Z,0.60
2023-02-06T22:07:04.662Z,0.60
2023-02-06T22:09:50.191Z,0.60
2023-02-06T22:12:35.750Z,0.40
2023-02-06T22:15:21.382Z,0.30
2023-02-06T22:18:06.676Z,0.30
2023-02-06T22:21:03.382Z,0.20
2023-02-06T22:23:50.179Z,0.80
2023-02-06T22:26:38.824Z,0.20
2023-02-06T22:29:24.637Z,0.20
2023-02-06T22:32:10.022Z,0.30
2023-02-06T22:34:59.384Z,0.20
2023-02-06T22:37:44.797Z,0.10
2023-02-06T22:40:30.298Z,0.10
2023-02-06T22:43:15.701Z,0.10
2023-02-06T22:46:01.427Z,0.60
2023-02-06T22:48:47.296Z,0.00
2023-02-06T22:51:33.307Z,0.00
2023-02-06T22:54:18.948Z,0.00
2023-02-06T22:57:04.194Z,0.00
2023-02-06T22:59:50.212Z,-1.00
2023-02-06T23:02:38.454Z,0.00
2023-02-06T23:05:23.898Z,-0.10
2023-02-06T23:08:09.464Z,-0.10
2023-02-06T23:10:55.045Z,-0.40
2023-02-06T23:13:41.109Z,0.00
2023-02-06T23:16:28.414Z,0.00
2023-02-06T23:19:14.834Z,-0.10
2023-02-06T23:22:00.004Z,-0.10
2023-02-06T23:24:45.591Z,0.00
2023-02-06T23:27:30.811Z,-0.10
2023-02-06T23:30:16.157Z,0.10
2023-02-06T23:33:01.941Z,-0.10
2023-02-06T23:35:47.492Z,-0.10
2023-02-06T23:38:33.195Z,0.00
2023-02-06T23:41:21.348Z,-0.20
2023-02-06T23:44:08.675Z,-0.30
2023-02-06T23:46:54.383Z,-0.30
2023-02-06T23:49:39.617Z,-0.30
2023-02-06T23:52:25.228Z,-0.30
2023-02-06T23:55:11.260Z,-0.40
2023-02-06T23:57:56.720Z,-0.60
